<?xml version="1.0" encoding="UTF-8" standalone="no" ?>
<gpx xmlns="http://www.topografix.com/GPX/1/1" xmlns:xsi="http://www.w3.org/2001/XMLSchema-instance" xsi:schemaLocation="http://www.topografix.com/GPX/1/1 http://www.topografix.com/GPX/1/1/gpx.xsd" version="1.1" creator="VisuGPX - https://www.visugpx.com">
  <metadata>
    <name>Serralongue</name>
  </metadata>
  <trk>
    <name><![CDATA[2015-07-26T09:15:40+02:00]]></name>
    <trkseg>
      <trkpt lat="42.38186" lon="2.61606">
        <ele>663.10723876953</ele>
        <time>2015-07-26T09:15:40+02:00</time>
      </trkpt>
      <trkpt lat="42.38038" lon="2.61814">
        <ele>666.84552001953</ele>
        <time>2015-07-26T09:16:18+02:00</time>
      </trkpt>
      <trkpt lat="42.37964" lon="2.61838">
        <ele>670.24017333984</ele>
        <time>2015-07-26T09:16:29+02:00</time>
      </trkpt>
      <trkpt lat="42.37894" lon="2.61928">
        <ele>670.00531005859</ele>
        <time>2015-07-26T09:16:46+02:00</time>
      </trkpt>
      <trkpt lat="42.37787" lon="2.61955">
        <ele>672.05432128906</ele>
        <time>2015-07-26T09:17:07+02:00</time>
      </trkpt>
      <trkpt lat="42.3761" lon="2.61893">
        <ele>688.39880371094</ele>
        <time>2015-07-26T09:17:50+02:00</time>
      </trkpt>
      <trkpt lat="42.37508" lon="2.61935">
        <ele>685.97705078125</ele>
        <time>2015-07-26T09:18:23+02:00</time>
      </trkpt>
      <trkpt lat="42.37471" lon="2.61892">
        <ele>692.04803466797</ele>
        <time>2015-07-26T09:18:40+02:00</time>
      </trkpt>
      <trkpt lat="42.37442" lon="2.6192">
        <ele>689.35766601562</ele>
        <time>2015-07-26T09:18:52+02:00</time>
      </trkpt>
      <trkpt lat="42.37409" lon="2.61863">
        <ele>697.24334716797</ele>
        <time>2015-07-26T09:19:10+02:00</time>
      </trkpt>
      <trkpt lat="42.37368" lon="2.61847">
        <ele>702.06384277344</ele>
        <time>2015-07-26T09:19:23+02:00</time>
      </trkpt>
      <trkpt lat="42.37284" lon="2.61881">
        <ele>700.46215820312</ele>
        <time>2015-07-26T09:19:50+02:00</time>
      </trkpt>
      <trkpt lat="42.37245" lon="2.61812">
        <ele>709.62347412109</ele>
        <time>2015-07-26T09:20:11+02:00</time>
      </trkpt>
      <trkpt lat="42.37162" lon="2.61793">
        <ele>715.49798583984</ele>
        <time>2015-07-26T09:20:42+02:00</time>
      </trkpt>
      <trkpt lat="42.37106" lon="2.61734">
        <ele>724.99993896484</ele>
        <time>2015-07-26T09:21:11+02:00</time>
      </trkpt>
      <trkpt lat="42.37018" lon="2.61749">
        <ele>721.92309570312</ele>
        <time>2015-07-26T09:21:45+02:00</time>
      </trkpt>
      <trkpt lat="42.36899" lon="2.61629">
        <ele>726.14447021484</ele>
        <time>2015-07-26T09:22:35+02:00</time>
      </trkpt>
      <trkpt lat="42.36842" lon="2.61662">
        <ele>722.86444091797</ele>
        <time>2015-07-26T09:22:54+02:00</time>
      </trkpt>
      <trkpt lat="42.36724" lon="2.61621">
        <ele>738.64294433594</ele>
        <time>2015-07-26T09:23:41+02:00</time>
      </trkpt>
      <trkpt lat="42.36657" lon="2.61633">
        <ele>737.80181884766</ele>
        <time>2015-07-26T09:24:10+02:00</time>
      </trkpt>
      <trkpt lat="42.36621" lon="2.61576">
        <ele>742.24603271484</ele>
        <time>2015-07-26T09:24:36+02:00</time>
      </trkpt>
      <trkpt lat="42.366" lon="2.6147">
        <ele>748.51623535156</ele>
        <time>2015-07-26T09:25:12+02:00</time>
      </trkpt>
      <trkpt lat="42.36602" lon="2.61177">
        <ele>766.29138183594</ele>
        <time>2015-07-26T09:26:48+02:00</time>
      </trkpt>
      <trkpt lat="42.36636" lon="2.61062">
        <ele>783.63818359375</ele>
        <time>2015-07-26T09:27:29+02:00</time>
      </trkpt>
      <trkpt lat="42.36642" lon="2.60825">
        <ele>792.31225585938</ele>
        <time>2015-07-26T09:28:45+02:00</time>
      </trkpt>
      <trkpt lat="42.36667" lon="2.60668">
        <ele>801.51928710938</ele>
        <time>2015-07-26T09:29:37+02:00</time>
      </trkpt>
      <trkpt lat="42.36656" lon="2.6044">
        <ele>809.60162353516</ele>
        <time>2015-07-26T09:30:51+02:00</time>
      </trkpt>
      <trkpt lat="42.3671" lon="2.60265">
        <ele>819.72448730469</ele>
        <time>2015-07-26T09:31:54+02:00</time>
      </trkpt>
      <trkpt lat="42.36634" lon="2.60278">
        <ele>821.38452148438</ele>
        <time>2015-07-26T09:32:41+02:00</time>
      </trkpt>
      <trkpt lat="42.3659" lon="2.60171">
        <ele>832.78399658203</ele>
        <time>2015-07-26T09:33:27+02:00</time>
      </trkpt>
      <trkpt lat="42.36533" lon="2.60121">
        <ele>836.20855712891</ele>
        <time>2015-07-26T09:34:02+02:00</time>
      </trkpt>
      <trkpt lat="42.36491" lon="2.60037">
        <ele>843.07037353516</ele>
        <time>2015-07-26T09:34:39+02:00</time>
      </trkpt>
      <trkpt lat="42.3648" lon="2.59979">
        <ele>844.1953125</ele>
        <time>2015-07-26T09:35:01+02:00</time>
      </trkpt>
      <trkpt lat="42.36505" lon="2.59785">
        <ele>859.79895019531</ele>
        <time>2015-07-26T09:36:15+02:00</time>
      </trkpt>
      <trkpt lat="42.36477" lon="2.5977">
        <ele>863.18835449219</ele>
        <time>2015-07-26T09:36:35+02:00</time>
      </trkpt>
      <trkpt lat="42.36493" lon="2.5969">
        <ele>870.84063720703</ele>
        <time>2015-07-26T09:37:09+02:00</time>
      </trkpt>
      <trkpt lat="42.36449" lon="2.59626">
        <ele>879.89599609375</ele>
        <time>2015-07-26T09:37:53+02:00</time>
      </trkpt>
      <trkpt lat="42.36501" lon="2.59646">
        <ele>887.17401123047</ele>
        <time>2015-07-26T09:38:31+02:00</time>
      </trkpt>
      <trkpt lat="42.36515" lon="2.59692">
        <ele>885.30358886719</ele>
        <time>2015-07-26T09:38:55+02:00</time>
      </trkpt>
      <trkpt lat="42.36561" lon="2.59728">
        <ele>891.00744628906</ele>
        <time>2015-07-26T09:39:26+02:00</time>
      </trkpt>
      <trkpt lat="42.36595" lon="2.5987">
        <ele>901.69598388672</ele>
        <time>2015-07-26T09:40:31+02:00</time>
      </trkpt>
      <trkpt lat="42.36596" lon="2.59982">
        <ele>905.43762207031</ele>
        <time>2015-07-26T09:41:09+02:00</time>
      </trkpt>
      <trkpt lat="42.36619" lon="2.60016">
        <ele>906.60369873047</ele>
        <time>2015-07-26T09:41:23+02:00</time>
      </trkpt>
      <trkpt lat="42.36722" lon="2.59885">
        <ele>910.29357910156</ele>
        <time>2015-07-26T09:42:08+02:00</time>
      </trkpt>
      <trkpt lat="42.36764" lon="2.59612">
        <ele>912.67260742188</ele>
        <time>2015-07-26T09:43:18+02:00</time>
      </trkpt>
      <trkpt lat="42.3679" lon="2.59614">
        <ele>915.65814208984</ele>
        <time>2015-07-26T09:43:25+02:00</time>
      </trkpt>
      <trkpt lat="42.36803" lon="2.59647">
        <ele>914.64996337891</ele>
        <time>2015-07-26T09:43:33+02:00</time>
      </trkpt>
      <trkpt lat="42.36877" lon="2.59616">
        <ele>922.05822753906</ele>
        <time>2015-07-26T09:44:09+02:00</time>
      </trkpt>
      <trkpt lat="42.36849" lon="2.59711">
        <ele>923.19897460938</ele>
        <time>2015-07-26T09:44:42+02:00</time>
      </trkpt>
      <trkpt lat="42.3693" lon="2.59756">
        <ele>932.36871337891</ele>
        <time>2015-07-26T09:45:24+02:00</time>
      </trkpt>
      <trkpt lat="42.36922" lon="2.59869">
        <ele>932.5400390625</ele>
        <time>2015-07-26T09:45:55+02:00</time>
      </trkpt>
      <trkpt lat="42.3695" lon="2.59978">
        <ele>937.29809570312</ele>
        <time>2015-07-26T09:46:27+02:00</time>
      </trkpt>
      <trkpt lat="42.37043" lon="2.60063">
        <ele>946.60479736328</ele>
        <time>2015-07-26T09:47:25+02:00</time>
      </trkpt>
      <trkpt lat="42.3701" lon="2.60143">
        <ele>950.53338623047</ele>
        <time>2015-07-26T09:48:03+02:00</time>
      </trkpt>
      <trkpt lat="42.37028" lon="2.60199">
        <ele>955.39270019531</ele>
        <time>2015-07-26T09:48:25+02:00</time>
      </trkpt>
      <trkpt lat="42.37008" lon="2.60348">
        <ele>959.08892822266</ele>
        <time>2015-07-26T09:49:26+02:00</time>
      </trkpt>
      <trkpt lat="42.37144" lon="2.60428">
        <ele>963.54406738281</ele>
        <time>2015-07-26T09:50:31+02:00</time>
      </trkpt>
      <trkpt lat="42.37274" lon="2.6038">
        <ele>962.19396972656</ele>
        <time>2015-07-26T09:51:03+02:00</time>
      </trkpt>
      <trkpt lat="42.37334" lon="2.60308">
        <ele>958.59393310547</ele>
        <time>2015-07-26T09:51:22+02:00</time>
      </trkpt>
      <trkpt lat="42.37365" lon="2.60129">
        <ele>949.8447265625</ele>
        <time>2015-07-26T09:52:11+02:00</time>
      </trkpt>
      <trkpt lat="42.37406" lon="2.6002">
        <ele>951.30560302734</ele>
        <time>2015-07-26T09:52:38+02:00</time>
      </trkpt>
      <trkpt lat="42.37474" lon="2.59978">
        <ele>935.78070068359</ele>
        <time>2015-07-26T09:52:57+02:00</time>
      </trkpt>
      <trkpt lat="42.37503" lon="2.5983">
        <ele>950.92962646484</ele>
        <time>2015-07-26T09:53:23+02:00</time>
      </trkpt>
      <trkpt lat="42.37579" lon="2.5978">
        <ele>933.94940185547</ele>
        <time>2015-07-26T09:53:45+02:00</time>
      </trkpt>
      <trkpt lat="42.37635" lon="2.59664">
        <ele>925.69842529297</ele>
        <time>2015-07-26T09:54:05+02:00</time>
      </trkpt>
      <trkpt lat="42.37648" lon="2.59589">
        <ele>922.2783203125</ele>
        <time>2015-07-26T09:54:17+02:00</time>
      </trkpt>
      <trkpt lat="42.37611" lon="2.59485">
        <ele>939.47668457031</ele>
        <time>2015-07-26T09:54:39+02:00</time>
      </trkpt>
      <trkpt lat="42.37622" lon="2.59453">
        <ele>940.51770019531</ele>
        <time>2015-07-26T09:54:46+02:00</time>
      </trkpt>
      <trkpt lat="42.37773" lon="2.59376">
        <ele>924.64978027344</ele>
        <time>2015-07-26T09:55:56+02:00</time>
      </trkpt>
      <trkpt lat="42.3782" lon="2.59321">
        <ele>922.71392822266</ele>
        <time>2015-07-26T09:56:24+02:00</time>
      </trkpt>
      <trkpt lat="42.37813" lon="2.59265">
        <ele>922.12091064453</ele>
        <time>2015-07-26T09:56:39+02:00</time>
      </trkpt>
      <trkpt lat="42.37781" lon="2.59232">
        <ele>929.06817626953</ele>
        <time>2015-07-26T09:56:49+02:00</time>
      </trkpt>
      <trkpt lat="42.37779" lon="2.59181">
        <ele>923.00616455078</ele>
        <time>2015-07-26T09:56:57+02:00</time>
      </trkpt>
      <trkpt lat="42.37735" lon="2.591">
        <ele>931.48620605469</ele>
        <time>2015-07-26T09:57:18+02:00</time>
      </trkpt>
      <trkpt lat="42.37745" lon="2.59061">
        <ele>922.88549804688</ele>
        <time>2015-07-26T09:57:35+02:00</time>
      </trkpt>
      <trkpt lat="42.37726" lon="2.59041">
        <ele>931.751953125</ele>
        <time>2015-07-26T09:58:17+02:00</time>
      </trkpt>
      <trkpt lat="42.37739" lon="2.59078">
        <ele>927.13000488281</ele>
        <time>2015-07-26T09:58:42+02:00</time>
      </trkpt>
      <trkpt lat="42.37786" lon="2.59069">
        <ele>904.82476806641</ele>
        <time>2015-07-26T09:59:19+02:00</time>
      </trkpt>
      <trkpt lat="42.37781" lon="2.59112">
        <ele>912.00512695312</ele>
        <time>2015-07-26T09:59:42+02:00</time>
      </trkpt>
      <trkpt lat="42.37807" lon="2.5915">
        <ele>906.62286376953</ele>
        <time>2015-07-26T09:59:57+02:00</time>
      </trkpt>
      <trkpt lat="42.38092" lon="2.5936">
        <ele>825.22338867188</ele>
        <time>2015-07-26T10:02:31+02:00</time>
      </trkpt>
      <trkpt lat="42.38191" lon="2.59537">
        <ele>796.25811767578</ele>
        <time>2015-07-26T10:03:30+02:00</time>
      </trkpt>
      <trkpt lat="42.38217" lon="2.59649">
        <ele>778.80249023438</ele>
        <time>2015-07-26T10:04:12+02:00</time>
      </trkpt>
      <trkpt lat="42.3829" lon="2.59739">
        <ele>753.42572021484</ele>
        <time>2015-07-26T10:04:39+02:00</time>
      </trkpt>
      <trkpt lat="42.38295" lon="2.59785">
        <ele>749.41900634766</ele>
        <time>2015-07-26T10:04:52+02:00</time>
      </trkpt>
      <trkpt lat="42.38257" lon="2.59823">
        <ele>749.80529785156</ele>
        <time>2015-07-26T10:05:05+02:00</time>
      </trkpt>
      <trkpt lat="42.38262" lon="2.59897">
        <ele>742.09832763672</ele>
        <time>2015-07-26T10:05:19+02:00</time>
      </trkpt>
      <trkpt lat="42.38317" lon="2.60051">
        <ele>727.62261962891</ele>
        <time>2015-07-26T10:05:46+02:00</time>
      </trkpt>
      <trkpt lat="42.38385" lon="2.60119">
        <ele>719.52117919922</ele>
        <time>2015-07-26T10:06:05+02:00</time>
      </trkpt>
      <trkpt lat="42.38442" lon="2.6029">
        <ele>697.318359375</ele>
        <time>2015-07-26T10:06:34+02:00</time>
      </trkpt>
      <trkpt lat="42.38493" lon="2.60344">
        <ele>688.17474365234</ele>
        <time>2015-07-26T10:06:53+02:00</time>
      </trkpt>
      <trkpt lat="42.38511" lon="2.60404">
        <ele>683.53942871094</ele>
        <time>2015-07-26T10:07:04+02:00</time>
      </trkpt>
      <trkpt lat="42.38639" lon="2.60422">
        <ele>666.11981201172</ele>
        <time>2015-07-26T10:07:32+02:00</time>
      </trkpt>
      <trkpt lat="42.38662" lon="2.60464">
        <ele>662.96954345703</ele>
        <time>2015-07-26T10:07:40+02:00</time>
      </trkpt>
      <trkpt lat="42.38553" lon="2.60616">
        <ele>667.47296142578</ele>
        <time>2015-07-26T10:08:08+02:00</time>
      </trkpt>
      <trkpt lat="42.38616" lon="2.60789">
        <ele>658.84600830078</ele>
        <time>2015-07-26T10:09:22+02:00</time>
      </trkpt>
      <trkpt lat="42.38579" lon="2.60917">
        <ele>655.80407714844</ele>
        <time>2015-07-26T10:09:44+02:00</time>
      </trkpt>
      <trkpt lat="42.38559" lon="2.60934">
        <ele>654.12036132812</ele>
        <time>2015-07-26T10:09:51+02:00</time>
      </trkpt>
      <trkpt lat="42.38459" lon="2.60927">
        <ele>653.01489257812</ele>
        <time>2015-07-26T10:10:28+02:00</time>
      </trkpt>
      <trkpt lat="42.38461" lon="2.6097">
        <ele>651.74127197266</ele>
        <time>2015-07-26T10:10:42+02:00</time>
      </trkpt>
      <trkpt lat="42.38508" lon="2.61006">
        <ele>652.18322753906</ele>
        <time>2015-07-26T10:11:00+02:00</time>
      </trkpt>
      <trkpt lat="42.38544" lon="2.6108">
        <ele>658.60430908203</ele>
        <time>2015-07-26T10:11:25+02:00</time>
      </trkpt>
      <trkpt lat="42.38535" lon="2.61099">
        <ele>661.62109375</ele>
        <time>2015-07-26T10:11:35+02:00</time>
      </trkpt>
      <trkpt lat="42.38504" lon="2.61073">
        <ele>658.85052490234</ele>
        <time>2015-07-26T10:11:59+02:00</time>
      </trkpt>
      <trkpt lat="42.38495" lon="2.61088">
        <ele>660.3505859375</ele>
        <time>2015-07-26T10:12:08+02:00</time>
      </trkpt>
      <trkpt lat="42.38504" lon="2.61145">
        <ele>667.04998779297</ele>
        <time>2015-07-26T10:12:37+02:00</time>
      </trkpt>
      <trkpt lat="42.38532" lon="2.6117">
        <ele>670.94830322266</ele>
        <time>2015-07-26T10:13:02+02:00</time>
      </trkpt>
      <trkpt lat="42.38478" lon="2.61146">
        <ele>666.25238037109</ele>
        <time>2015-07-26T10:13:37+02:00</time>
      </trkpt>
      <trkpt lat="42.38426" lon="2.61181">
        <ele>665.73516845703</ele>
        <time>2015-07-26T10:13:52+02:00</time>
      </trkpt>
      <trkpt lat="42.38387" lon="2.61357">
        <ele>668.06060791016</ele>
        <time>2015-07-26T10:14:14+02:00</time>
      </trkpt>
      <trkpt lat="42.38401" lon="2.61448">
        <ele>664.19769287109</ele>
        <time>2015-07-26T10:14:23+02:00</time>
      </trkpt>
      <trkpt lat="42.38388" lon="2.61485">
        <ele>661.99798583984</ele>
        <time>2015-07-26T10:14:27+02:00</time>
      </trkpt>
      <trkpt lat="42.38314" lon="2.61507">
        <ele>661.51580810547</ele>
        <time>2015-07-26T10:14:39+02:00</time>
      </trkpt>
      <trkpt lat="42.38268" lon="2.61443">
        <ele>657.27734375</ele>
        <time>2015-07-26T10:14:53+02:00</time>
      </trkpt>
      <trkpt lat="42.38227" lon="2.61511">
        <ele>661.39294433594</ele>
        <time>2015-07-26T10:15:06+02:00</time>
      </trkpt>
      <trkpt lat="42.38228" lon="2.61529">
        <ele>662.71197509766</ele>
        <time>2015-07-26T10:15:10+02:00</time>
      </trkpt>
      <trkpt lat="42.38244" lon="2.61514">
        <ele>663.22381591797</ele>
        <time>2015-07-26T10:15:24+02:00</time>
      </trkpt>
      <trkpt lat="42.38244" lon="2.61539">
        <ele>665.00854492188</ele>
        <time>2015-07-26T10:15:33+02:00</time>
      </trkpt>
      <trkpt lat="42.38231" lon="2.61524">
        <ele>662.66558837891</ele>
        <time>2015-07-26T10:15:43+02:00</time>
      </trkpt>
      <trkpt lat="42.38243" lon="2.61538">
        <ele>664.83630371094</ele>
        <time>2015-07-26T10:15:51+02:00</time>
      </trkpt>
    </trkseg>
  </trk>
</gpx>